createdAt,value
2024-03-02T00:01:08.753Z,1.17
2024-03-02T00:03:36.710Z,1.40
2024-03-02T00:06:04.854Z,1.30
2024-03-02T00:08:32.747Z,0.95
2024-03-02T00:11:01.579Z,1.10
2024-03-02T00:13:29.436Z,0.80
2024-03-02T00:15:59.275Z,0.93
2024-03-02T00:18:28.215Z,1.23
2024-03-02T00:20:57.892Z,1.05
2024-03-02T00:23:26.955Z,1.00
2024-03-02T00:25:56.850Z,0.90
2024-03-02T00:28:26.070Z,1.20
2024-03-02T00:31:01.069Z,1.00
2024-03-02T00:33:30.618Z,1.40
2024-03-02T00:35:58.589Z,1.10
2024-03-02T00:38:26.525Z,1.15
2024-03-02T00:40:54.604Z,1.30
2024-03-02T00:43:46.023Z,1.50
2024-03-02T00:46:18.764Z,1.10
2024-03-02T00:48:57.371Z,1.30
2024-03-02T00:51:26.725Z,1.00
2024-03-02T00:53:57.018Z,1.38
2024-03-02T00:56:25.230Z,1.00
2024-03-02T00:58:53.584Z,1.10
2024-03-02T01:01:23.763Z,1.10
2024-03-02T01:03:52.440Z,1.20
2024-03-02T01:06:20.573Z,1.08
2024-03-02T01:08:52.046Z,0.85
2024-03-02T01:11:20.320Z,1.17
2024-03-02T01:13:48.277Z,0.97
2024-03-02T01:16:16.698Z,0.90
2024-03-02T01:18:46.222Z,1.10
2024-03-02T01:21:14.192Z,1.20
2024-03-02T01:23:42.139Z,1.38
2024-03-02T01:26:09.843Z,0.83
2024-03-02T01:28:37.653Z,1.20
2024-03-02T01:31:05.740Z,0.90
2024-03-02T01:33:33.598Z,0.85
2024-03-02T01:36:03.017Z,1.17
2024-03-02T01:38:30.797Z,1.33
2024-03-02T01:40:59.686Z,0.90
2024-03-02T01:43:27.588Z,1.17
2024-03-02T01:45:55.428Z,1.10
2024-03-02T01:48:23.263Z,1.00
2024-03-02T01:50:50.971Z,1.20
2024-03-02T01:53:20.118Z,0.77
2024-03-02T01:55:47.827Z,1.30
2024-03-02T01:58:15.679Z,1.08
2024-03-02T02:00:43.542Z,1.15
2024-03-02T02:03:11.629Z,1.40
2024-03-02T02:05:39.362Z,0.98
2024-03-02T02:08:07.559Z,1.00
2024-03-02T02:10:37.060Z,1.15
2024-03-02T02:13:05.128Z,1.02
2024-03-02T02:15:35.872Z,0.90
2024-03-02T02:18:04.911Z,0.90
2024-03-02T02:20:32.752Z,0.80
2024-03-02T02:23:02.800Z,1.13
2024-03-02T02:25:31.117Z,0.98
2024-03-02T02:27:59.907Z,0.80
2024-03-02T02:30:29.721Z,0.90
2024-03-02T02:32:57.611Z,1.08
2024-03-02T02:35:26.222Z,0.90
2024-03-02T02:37:54.607Z,0.88
2024-03-02T02:40:23.989Z,1.30
2024-03-02T02:42:53.205Z,0.80
2024-03-02T02:45:21.275Z,0.73
2024-03-02T02:47:49.097Z,0.88
2024-03-02T02:50:16.892Z,0.80
2024-03-02T02:52:44.914Z,0.80
2024-03-02T02:55:14.138Z,0.83
2024-03-02T02:57:45.100Z,0.85
2024-03-02T03:00:17.553Z,0.98
2024-03-02T03:02:48.452Z,0.77
2024-03-02T03:05:17.105Z,0.88
2024-03-02T03:07:46.341Z,1.00
2024-03-02T03:10:15.156Z,1.08
2024-03-02T03:12:45.768Z,0.95
2024-03-02T03:15:14.150Z,0.90
2024-03-02T03:17:42.564Z,1.03
2024-03-02T03:20:11.836Z,1.10
2024-03-02T03:22:40.086Z,1.00
2024-03-02T03:25:09.592Z,0.93
2024-03-02T03:27:38.059Z,1.20
2024-03-02T03:30:08.584Z,1.27
2024-03-02T03:32:36.562Z,1.10
2024-03-02T03:35:05.200Z,0.98
2024-03-02T03:37:34.888Z,0.80
2024-03-02T03:40:03.820Z,1.07
2024-03-02T03:42:31.649Z,0.70
2024-03-02T03:44:59.427Z,0.80
2024-03-02T03:47:28.877Z,0.70
2024-03-02T03:49:56.727Z,0.60
2024-03-02T03:52:24.516Z,0.65
2024-03-02T03:54:52.422Z,0.60
2024-03-02T03:57:20.355Z,0.50
2024-03-02T03:59:48.464Z,0.50
2024-03-02T04:02:16.290Z,0.77
2024-03-02T04:04:45.739Z,0.47
2024-03-02T04:07:13.981Z,0.50
2024-03-02T04:09:41.911Z,0.40
2024-03-02T04:12:09.735Z,0.40
2024-03-02T04:14:38.870Z,0.32
2024-03-02T04:17:07.243Z,0.27
2024-03-02T04:19:35.568Z,0.40
2024-03-02T04:22:12.437Z,0.10
2024-03-02T04:24:46.441Z,0.30
2024-03-02T04:27:14.334Z,0.30
2024-03-02T04:29:42.066Z,0.30
2024-03-02T04:32:09.912Z,0.43
2024-03-02T04:34:37.730Z,0.30
2024-03-02T04:37:07.275Z,0.30
2024-03-02T04:39:37.064Z,0.20
2024-03-02T04:42:05.263Z,0.30
2024-03-02T04:44:33.097Z,0.30
2024-03-02T04:47:00.848Z,0.20
2024-03-02T04:49:28.763Z,0.20
2024-03-02T04:51:56.633Z,0.20
2024-03-02T04:54:26.342Z,0.17
2024-03-02T04:56:53.132Z,0.13
2024-03-02T04:59:21.057Z,0.10
2024-03-02T05:01:49.374Z,0.10
2024-03-02T05:04:17.155Z,0.10
2024-03-02T05:06:44.990Z,0.17
2024-03-02T05:09:12.790Z,0.10
2024-03-02T05:12:04.070Z,0.15
2024-03-02T05:14:31.775Z,0.20
2024-03-02T05:16:59.520Z,0.30
2024-03-02T05:19:27.322Z,0.10
2024-03-02T05:21:55.084Z,0.10
2024-03-02T05:24:23.127Z,0.10
2024-03-02T05:26:52.224Z,0.20
2024-03-02T05:29:19.977Z,0.20
2024-03-02T05:31:47.724Z,0.10
2024-03-02T05:34:15.620Z,0.38
2024-03-02T05:36:43.438Z,0.10
2024-03-02T05:39:11.513Z,0.10
2024-03-02T05:41:40.149Z,0.10
2024-03-02T05:44:09.438Z,0.13
2024-03-02T05:46:38.679Z,0.20
2024-03-02T05:49:09.001Z,0.20
2024-03-02T05:51:36.864Z,0.20
2024-03-02T05:54:05.175Z,0.10
2024-03-02T05:56:33.273Z,0.10
2024-03-02T05:59:13.382Z,0.10
2024-03-02T06:01:42.893Z,0.10
2024-03-02T06:04:11.725Z,0.17
2024-03-02T06:06:39.990Z,0.20
2024-03-02T06:09:09.393Z,0.30
2024-03-02T06:11:37.488Z,0.10
2024-03-02T06:14:05.628Z,0.20
2024-03-02T06:16:33.939Z,0.10
2024-03-02T06:19:03.579Z,0.30
2024-03-02T06:21:31.501Z,0.17
2024-03-02T06:23:59.249Z,0.10
2024-03-02T06:26:26.972Z,0.10
2024-03-02T06:28:54.827Z,0.10
2024-03-02T06:31:22.553Z,0.10
2024-03-02T06:33:50.518Z,0.20
2024-03-02T06:36:19.717Z,0.10
2024-03-02T06:38:47.393Z,0.30
2024-03-02T06:41:15.117Z,0.30
2024-03-02T06:43:42.895Z,0.20
2024-03-02T06:46:10.859Z,0.20
2024-03-02T06:48:38.775Z,0.10
2024-03-02T06:51:06.608Z,0.30
2024-03-02T06:53:35.821Z,0.25
2024-03-02T06:56:03.637Z,0.20
2024-03-02T06:58:31.388Z,0.10
2024-03-02T07:00:59.171Z,0.15
2024-03-02T07:03:27.039Z,0.10
2024-03-02T07:05:54.832Z,0.10
2024-03-02T07:08:22.569Z,0.30
2024-03-02T07:10:51.722Z,0.10
2024-03-02T07:13:19.498Z,0.20
2024-03-02T07:16:07.242Z,0.30
2024-03-02T07:18:36.137Z,0.20
2024-03-02T07:21:03.973Z,0.25
2024-03-02T07:23:32.722Z,0.20
2024-03-02T07:28:33.595Z,0.10
2024-03-02T07:31:02.033Z,0.30
2024-03-02T07:33:29.890Z,0.40
2024-03-02T07:35:57.882Z,2.20
2024-03-02T07:38:25.757Z,4.00
2024-03-02T07:40:54.089Z,2.47
2024-03-02T07:43:23.535Z,1.38
2024-03-02T07:45:51.430Z,0.43
2024-03-02T07:48:19.248Z,0.68
2024-03-02T07:50:47.107Z,0.40
2024-03-02T07:53:15.402Z,0.20
2024-03-02T07:55:43.397Z,0.38
2024-03-02T07:58:12.678Z,0.25
2024-03-02T08:00:42.624Z,0.30
2024-03-02T08:03:12.451Z,0.50
2024-03-02T08:05:40.822Z,0.35
2024-03-02T08:08:08.807Z,0.50
2024-03-02T08:10:36.955Z,0.40
2024-03-02T08:13:04.964Z,0.57
2024-03-02T08:15:34.259Z,0.60
2024-03-02T08:18:03.554Z,0.65
2024-03-02T08:20:32.625Z,0.50
2024-03-02T08:23:00.641Z,0.60
2024-03-02T08:25:28.532Z,0.95
2024-03-02T08:27:56.390Z,0.90
2024-03-02T08:30:24.209Z,0.95
2024-03-02T08:32:51.986Z,0.70
2024-03-02T08:35:23.447Z,0.82
2024-03-02T08:37:51.291Z,1.20
2024-03-02T08:40:19.564Z,0.93
2024-03-02T08:42:47.947Z,1.13
2024-03-02T08:45:15.849Z,1.40
2024-03-02T08:47:43.638Z,1.10
2024-03-02T08:50:11.408Z,1.20
2024-03-02T08:52:40.664Z,1.42
2024-03-02T08:55:09.257Z,0.90
2024-03-02T08:57:37.095Z,0.95
2024-03-02T09:00:06.301Z,0.55
2024-03-02T09:02:34.067Z,0.45
2024-03-02T09:05:01.915Z,0.70
2024-03-02T09:07:29.936Z,0.73
2024-03-02T09:10:01.882Z,0.55
2024-03-02T09:12:29.683Z,0.50
2024-03-02T09:14:57.458Z,0.55
2024-03-02T09:17:25.420Z,0.40
2024-03-02T09:19:53.985Z,0.40
2024-03-02T09:22:21.828Z,0.40
2024-03-02T09:24:49.670Z,1.00
2024-03-02T09:27:18.963Z,0.50
2024-03-02T09:29:46.913Z,0.80
2024-03-02T09:32:15.681Z,0.47
2024-03-02T09:34:44.407Z,0.40
2024-03-02T09:37:12.186Z,0.50
2024-03-02T09:39:39.908Z,0.90
2024-03-02T09:42:08.330Z,0.63
2024-03-02T09:44:37.501Z,0.90
2024-03-02T09:47:05.722Z,1.30
2024-03-02T09:49:33.580Z,1.40
2024-03-02T09:52:01.463Z,0.80
2024-03-02T09:54:29.905Z,0.80
2024-03-02T09:56:57.650Z,0.93
2024-03-02T09:59:25.416Z,1.30
2024-03-02T10:02:01.632Z,1.15
2024-03-02T10:04:30.414Z,1.08
2024-03-02T10:07:22.175Z,1.05
2024-03-02T10:09:50.844Z,0.80
2024-03-02T10:12:19.740Z,0.57
2024-03-02T10:14:49.723Z,0.70
2024-03-02T10:17:20.089Z,0.40
2024-03-02T10:19:48.645Z,0.32
2024-03-02T10:22:16.536Z,0.30
2024-03-02T10:24:46.275Z,0.40
2024-03-02T10:27:18.380Z,0.30
2024-03-02T10:29:48.511Z,0.20
2024-03-02T10:32:16.922Z,0.25
2024-03-02T10:34:48.315Z,0.20
2024-03-02T10:37:18.230Z,0.10
2024-03-02T10:39:48.626Z,0.28
2024-03-02T10:42:17.035Z,0.20
2024-03-02T10:44:45.383Z,0.15
2024-03-02T10:47:14.604Z,0.40
2024-03-02T10:49:44.273Z,0.20
2024-03-02T10:52:13.394Z,0.20
2024-03-02T10:54:41.798Z,0.33
2024-03-02T10:57:11.602Z,0.55
2024-03-02T10:59:41.075Z,0.88
2024-03-02T11:02:09.607Z,1.48
2024-03-02T11:04:37.677Z,1.50
2024-03-02T11:07:07.354Z,1.00
2024-03-02T11:09:41.360Z,1.20
2024-03-02T11:12:15.699Z,1.80
2024-03-02T11:14:45.385Z,1.10
2024-03-02T11:17:13.919Z,0.90
2024-03-02T11:19:42.029Z,0.70
2024-03-02T11:22:10.540Z,0.70
2024-03-02T11:24:39.753Z,0.55
2024-03-02T11:27:08.818Z,0.57
2024-03-02T11:29:46.785Z,0.60
2024-03-02T11:32:19.559Z,0.43
2024-03-02T11:34:49.232Z,0.60
2024-03-02T11:37:17.207Z,0.40
2024-03-02T11:39:47.627Z,0.30
2024-03-02T11:44:15.169Z,0.30
2024-03-02T11:46:43.022Z,0.40
2024-03-02T11:49:11.017Z,0.55
2024-03-02T11:51:41.135Z,0.45
2024-03-02T11:54:10.946Z,0.45
2024-03-02T11:56:38.619Z,0.47
2024-03-02T11:59:06.966Z,0.70
2024-03-02T12:01:38.329Z,0.50
2024-03-02T12:04:07.536Z,0.70
2024-03-02T12:06:35.355Z,0.43
2024-03-02T12:09:03.648Z,0.87
2024-03-02T12:11:31.429Z,1.37
2024-03-02T12:14:00.355Z,1.23
2024-03-02T12:16:28.114Z,1.35
2024-03-02T12:18:58.249Z,1.27
2024-03-02T12:21:26.090Z,1.20
2024-03-02T12:23:53.954Z,1.35
2024-03-02T12:26:22.146Z,1.10
2024-03-02T12:28:50.030Z,1.10
2024-03-02T12:31:17.920Z,1.20
2024-03-02T12:33:45.712Z,1.20
2024-03-02T12:38:39.606Z,1.27
2024-03-02T12:43:15.899Z,1.73
2024-03-02T12:45:43.759Z,0.70
2024-03-02T12:48:11.537Z,0.70
2024-03-02T12:50:39.318Z,0.80
2024-03-02T12:53:07.051Z,0.70
2024-03-02T12:57:33.386Z,4.10
2024-03-02T13:00:01.563Z,7.50
2024-03-02T13:02:33.016Z,3.63
2024-03-02T13:05:00.780Z,4.65
2024-03-02T13:07:29.004Z,3.80
2024-03-02T13:09:57.772Z,1.00
2024-03-02T13:12:26.667Z,0.80
2024-03-02T13:14:56.045Z,1.42
2024-03-02T14:15:07.098Z,0.30
2024-03-02T14:17:34.874Z,0.60
2024-03-02T14:20:06.768Z,0.52
2024-03-02T14:23:37.381Z,0.60
2024-03-02T14:26:05.523Z,0.60
2024-03-02T14:28:47.870Z,0.80
2024-03-02T14:31:18.962Z,0.90
2024-03-02T14:33:46.803Z,1.92
2024-03-02T14:36:14.838Z,2.40
2024-03-02T14:38:44.456Z,0.80
2024-03-02T14:41:12.294Z,0.45
2024-03-02T14:43:40.052Z,1.88
2024-03-02T14:46:09.479Z,1.00
2024-03-02T14:48:37.479Z,0.98
2024-03-02T14:51:05.730Z,0.75
2024-03-02T14:53:33.490Z,0.40
2024-03-02T14:56:02.674Z,0.30
2024-03-02T14:58:30.345Z,0.30
2024-03-02T15:00:58.400Z,0.30
2024-03-02T15:03:26.275Z,0.30
2024-03-02T15:05:54.892Z,0.20
2024-03-02T15:08:22.645Z,0.30
2024-03-02T15:10:50.428Z,0.22
2024-03-02T15:13:19.581Z,0.28
2024-03-02T15:15:47.494Z,0.17
2024-03-02T15:18:15.321Z,0.10
2024-03-02T15:33:06.237Z,5.77
2024-03-02T15:35:34.266Z,4.40
2024-03-02T15:38:02.031Z,3.72
2024-03-02T15:40:29.803Z,0.20
2024-03-02T15:42:57.632Z,0.43
2024-03-02T15:45:26.043Z,0.47
2024-03-02T15:47:53.806Z,0.32
2024-03-02T15:50:22.959Z,0.30
2024-03-02T15:52:50.714Z,0.30
2024-03-02T15:55:18.518Z,0.40
2024-03-02T15:57:46.407Z,1.50
2024-03-02T16:00:15.084Z,0.52
2024-03-02T16:02:42.860Z,0.40
2024-03-02T16:05:10.855Z,1.08
2024-03-02T16:07:39.953Z,1.30
2024-03-02T16:10:09.048Z,1.38
2024-03-02T16:12:36.899Z,3.70
2024-03-02T16:15:05.293Z,1.95
2024-03-02T16:17:33.078Z,1.60
2024-03-02T16:20:00.787Z,1.08
2024-03-02T16:22:28.557Z,0.98
2024-03-02T16:24:57.656Z,11.23
2024-03-02T16:27:25.731Z,9.65
2024-03-02T16:29:55.498Z,1.80
2024-03-02T16:32:23.237Z,1.55
2024-03-02T16:34:51.575Z,0.70
2024-03-02T16:37:20.601Z,2.47
2024-03-02T16:39:49.701Z,2.23
2024-03-02T16:42:21.075Z,2.30
2024-03-02T16:44:49.522Z,4.97
2024-03-02T16:47:17.395Z,3.78
2024-03-02T16:49:46.385Z,4.72
2024-03-02T16:52:15.998Z,3.42
2024-03-02T16:54:43.857Z,3.37
2024-03-02T16:57:12.590Z,1.90
2024-03-02T16:59:44.099Z,2.22
2024-03-02T17:02:12.216Z,2.13
2024-03-02T17:04:40.057Z,3.00
2024-03-02T17:07:08.030Z,2.30
2024-03-02T17:09:36.085Z,1.83
2024-03-02T17:12:05.584Z,1.95
2024-03-02T17:14:33.284Z,0.47
2024-03-02T17:17:02.493Z,0.47
2024-03-02T17:19:30.431Z,0.40
2024-03-02T17:21:58.321Z,0.68
2024-03-02T17:24:26.168Z,1.70
2024-03-02T17:26:53.918Z,0.70
2024-03-02T17:30:28.893Z,0.20
2024-03-02T17:32:56.596Z,8.18
2024-03-02T17:36:45.762Z,1.00
2024-03-02T17:39:13.499Z,0.87
2024-03-02T17:41:41.230Z,1.30
2024-03-02T17:44:10.336Z,0.57
2024-03-02T17:46:38.016Z,0.73
2024-03-02T17:49:05.764Z,0.40
2024-03-02T17:51:33.596Z,0.40
2024-03-02T17:54:02.749Z,0.30
2024-03-02T17:56:31.479Z,6.65
2024-03-02T17:58:59.625Z,0.73
2024-03-02T18:01:27.398Z,0.40
2024-03-02T18:03:55.144Z,0.65
2024-03-02T18:06:23.066Z,0.30
2024-03-02T18:08:51.062Z,0.20
2024-03-02T18:11:20.608Z,0.20
2024-03-02T18:13:48.396Z,0.47
2024-03-02T18:16:16.747Z,0.40
2024-03-02T18:18:44.609Z,0.30
2024-03-02T18:21:12.404Z,0.60
2024-03-02T18:23:40.081Z,0.43
2024-03-02T18:26:07.813Z,0.30
2024-03-02T18:28:39.150Z,0.28
2024-03-02T18:31:08.436Z,0.50
2024-03-02T18:33:38.548Z,0.98
2024-03-02T18:36:07.435Z,1.05
2024-03-02T18:38:35.177Z,1.23
2024-03-02T18:41:02.916Z,0.70
2024-03-02T18:43:30.627Z,0.68
2024-03-02T18:46:00.926Z,0.95
2024-03-02T18:48:28.988Z,0.85
2024-03-02T18:50:56.806Z,0.60
2024-03-02T18:53:24.523Z,0.52
2024-03-02T18:55:53.101Z,0.70
2024-03-02T18:58:21.179Z,1.02
2024-03-02T19:00:49.130Z,0.90
2024-03-02T19:03:18.274Z,1.30
2024-03-02T19:05:46.028Z,1.13
2024-03-02T19:08:18.601Z,1.10
2024-03-02T19:10:46.361Z,0.90
2024-03-02T19:13:14.084Z,1.00
2024-03-02T19:15:41.934Z,1.20
2024-03-02T19:18:09.853Z,1.30
2024-03-02T19:20:41.586Z,1.52
2024-03-02T19:23:14.720Z,1.50
2024-03-02T19:25:46.044Z,2.65
2024-03-02T19:28:14.433Z,1.77
2024-03-02T19:30:44.985Z,1.80
2024-03-02T19:33:15.537Z,3.00
2024-03-02T19:35:44.679Z,2.92
2024-03-02T19:38:13.883Z,1.70
2024-03-02T19:40:41.720Z,2.87
2024-03-02T19:43:09.567Z,2.42
2024-03-02T19:45:37.368Z,1.60
2024-03-02T19:48:05.359Z,2.63
2024-03-02T19:50:33.252Z,1.90
2024-03-02T19:53:03.900Z,1.85
2024-03-02T19:55:31.686Z,3.03
2024-03-02T19:57:59.441Z,1.73
2024-03-02T20:00:28.325Z,1.67
2024-03-02T20:02:56.137Z,1.90
2024-03-02T20:05:25.343Z,1.63
2024-03-02T20:07:53.036Z,2.13
2024-03-02T20:10:22.326Z,2.05
2024-03-02T20:12:50.131Z,1.50
2024-03-02T20:15:19.874Z,2.30
2024-03-02T20:17:48.421Z,2.13
2024-03-02T20:20:16.936Z,1.85
2024-03-02T20:22:44.776Z,1.88
2024-03-02T20:25:14.166Z,1.70
2024-03-02T20:27:44.607Z,1.73
2024-03-02T20:30:14.064Z,1.50
2024-03-02T20:32:41.920Z,1.92
2024-03-02T20:35:12.704Z,1.80
2024-03-02T20:37:41.103Z,1.85
2024-03-02T20:40:10.037Z,1.80
2024-03-02T20:42:38.558Z,1.97
2024-03-02T20:45:08.657Z,2.00
2024-03-02T20:47:36.422Z,2.20
2024-03-02T20:50:04.376Z,1.85
2024-03-02T20:52:32.154Z,1.98
2024-03-02T20:54:59.947Z,1.80
2024-03-02T20:57:27.663Z,1.52
2024-03-02T20:59:55.951Z,1.40
2024-03-02T21:02:25.321Z,1.40
2024-03-02T21:04:53.073Z,1.50
2024-03-02T21:07:21.815Z,1.50
2024-03-02T21:09:49.730Z,1.35
2024-03-02T21:12:17.520Z,1.20
2024-03-02T21:14:45.254Z,1.08
2024-03-02T21:17:12.999Z,1.00
2024-03-02T21:19:42.037Z,1.40
2024-03-02T21:22:09.822Z,0.93
2024-03-02T21:24:38.248Z,1.25
2024-03-02T21:27:07.800Z,1.50
2024-03-02T21:29:35.685Z,1.30
2024-03-02T21:32:03.450Z,1.42
2024-03-02T21:34:31.151Z,1.35
2024-03-02T21:37:00.218Z,1.33
2024-03-02T21:39:35.968Z,1.38
2024-03-02T21:42:07.993Z,1.15
2024-03-02T21:44:35.689Z,1.35
2024-03-02T21:47:06.853Z,1.50
2024-03-02T21:49:35.000Z,1.73
2024-03-02T21:52:04.644Z,1.40
2024-03-02T21:54:33.316Z,1.60
2024-03-02T21:57:03.483Z,1.23
2024-03-02T21:59:31.564Z,2.50
2024-03-02T22:01:59.564Z,2.50
2024-03-02T22:04:27.393Z,2.00
2024-03-02T22:06:55.559Z,1.48
2024-03-02T22:09:24.770Z,1.35
2024-03-02T22:11:52.513Z,1.45
2024-03-02T22:14:22.013Z,1.85
2024-03-02T22:16:49.774Z,1.55
2024-03-02T22:19:17.539Z,1.83
2024-03-02T22:21:45.392Z,1.90
2024-03-02T22:24:14.817Z,2.40
2024-03-02T22:26:43.956Z,3.03
2024-03-02T22:29:11.747Z,2.47
2024-03-02T22:31:39.553Z,2.42
2024-03-02T22:34:07.411Z,2.45
2024-03-02T22:36:35.248Z,2.63
2024-03-02T22:39:03.009Z,2.50
2024-03-02T22:41:30.778Z,2.60
2024-03-02T22:44:00.325Z,2.95
2024-03-02T22:46:28.110Z,3.00
2024-03-02T22:48:56.272Z,2.70
2024-03-02T22:51:24.345Z,3.13
2024-03-02T22:53:52.158Z,2.90
2024-03-02T22:56:20.844Z,2.97
2024-03-02T22:58:48.535Z,3.20
2024-03-02T23:01:21.428Z,3.15
2024-03-02T23:03:49.395Z,3.10
2024-03-02T23:06:17.181Z,3.30
2024-03-02T23:08:45.399Z,3.60
2024-03-02T23:11:13.415Z,3.35
2024-03-02T23:13:41.778Z,3.53
2024-03-02T23:16:10.059Z,3.75
2024-03-02T23:18:39.371Z,3.70
2024-03-02T23:21:07.824Z,3.58
2024-03-02T23:23:35.582Z,3.88
2024-03-02T23:26:03.797Z,3.72
2024-03-02T23:28:31.522Z,4.13
2024-03-02T23:30:59.840Z,3.75
2024-03-02T23:33:27.628Z,3.90
2024-03-02T23:35:56.778Z,3.78
2024-03-02T23:38:24.518Z,3.75
2024-03-02T23:41:08.986Z,4.10
2024-03-02T23:43:36.079Z,3.67
2024-03-02T23:46:03.825Z,3.97
2024-03-02T23:48:31.580Z,4.60
2024-03-02T23:51:00.903Z,4.47
2024-03-02T23:53:28.668Z,4.10
2024-03-02T23:55:57.727Z,4.97
2024-03-02T23:58:25.523Z,4.85
